SUA weather

Witham Field
Stuart, Florida, United States

Public forecast

Using degrees Fahrenheit for public forecast. Weather courtesy of forecast.io.

METAR (pilot weather report)

Retrieved 2019/09/19 10:50 UTC (35 minutes ago):

KSUA 191050Z 06010KT 7SM SCT024 26/18 A2997

TAF (pilot weather forecast)

Retrieved 2019/09/19 06:48 UTC (5 hours ago):

TAF KSUA 190545Z 1906/2006 05012G18KT P6SM SCT035 SCT050 FM191400 07015G22KT P6SM SCT040 SCT060